createdAt,value
2023-01-08T00:01:52.683Z,3.17
2023-01-08T00:04:19.666Z,2.50
2023-01-08T00:06:46.603Z,3.00
2023-01-08T00:09:13.845Z,5.97
2023-01-08T00:11:41.039Z,3.13
2023-01-08T00:14:07.970Z,3.55
2023-01-08T00:16:34.937Z,3.00
2023-01-08T00:19:01.968Z,2.60
2023-01-08T00:21:29.467Z,3.05
2023-01-08T00:23:56.420Z,2.85
2023-01-08T00:26:23.365Z,2.55
2023-01-08T00:28:51.999Z,2.90
2023-01-08T00:31:18.894Z,2.63
2023-01-08T00:33:45.855Z,2.53
2023-01-08T00:36:17.539Z,2.35
2023-01-08T00:38:45.222Z,3.25
2023-01-08T00:41:13.983Z,2.03
2023-01-08T00:43:41.001Z,3.38
2023-01-08T00:46:08.481Z,2.70
2023-01-08T00:48:38.758Z,2.60
2023-01-08T00:51:07.341Z,3.13
2023-01-08T00:53:34.318Z,2.83
2023-01-08T00:56:06.931Z,3.45
2023-01-08T00:58:34.121Z,2.55
2023-01-08T01:01:01.534Z,2.95
2023-01-08T01:03:28.789Z,2.17
2023-01-08T01:06:06.185Z,4.63
2023-01-08T01:08:33.987Z,5.22
2023-01-08T01:11:01.015Z,2.10
2023-01-08T01:13:27.970Z,3.80
2023-01-08T01:16:01.783Z,3.83
2023-01-08T01:18:29.277Z,2.55
2023-01-08T01:20:56.270Z,2.38
2023-01-08T01:23:23.228Z,4.55
2023-01-08T01:25:50.181Z,4.05
2023-01-08T01:28:17.344Z,2.42
2023-01-08T01:30:44.275Z,3.88
2023-01-08T01:33:11.260Z,6.05
2023-01-08T01:35:38.153Z,2.70
2023-01-08T01:38:05.054Z,3.42
2023-01-08T01:40:31.954Z,3.83
2023-01-08T01:42:58.877Z,2.40
2023-01-08T01:45:31.304Z,3.13
2023-01-08T01:47:59.655Z,2.72
2023-01-08T01:50:44.242Z,3.10
2023-01-08T01:53:13.511Z,3.28
2023-01-08T01:58:19.415Z,4.72
2023-01-08T02:00:46.793Z,3.77
2023-01-08T02:03:15.832Z,2.70
2023-01-08T02:05:56.618Z,2.95
2023-01-08T02:08:32.322Z,3.90
2023-01-08T02:11:08.297Z,2.30
2023-01-08T02:13:38.802Z,2.78
2023-01-08T02:16:33.577Z,3.13
2023-01-08T02:19:04.837Z,2.95
2023-01-08T02:21:50.617Z,2.97
2023-01-08T02:24:33.663Z,2.30
2023-01-08T02:27:02.010Z,3.22
2023-01-08T02:29:29.402Z,2.85
2023-01-08T02:31:56.903Z,3.83
2023-01-08T02:34:23.839Z,2.92
2023-01-08T02:36:55.536Z,6.07
2023-01-08T02:39:54.450Z,3.00
2023-01-08T02:42:37.280Z,3.40
2023-01-08T02:45:29.220Z,2.83
2023-01-08T02:48:06.451Z,2.83
2023-01-08T02:50:38.131Z,1.92
2023-01-08T02:53:17.905Z,2.45
2023-01-08T02:55:55.591Z,2.45
2023-01-08T02:58:23.957Z,2.47
2023-01-08T03:00:51.150Z,2.15
2023-01-08T03:03:23.052Z,2.20
2023-01-08T03:05:52.466Z,2.90
2023-01-08T03:10:49.824Z,2.10
2023-01-08T03:13:24.257Z,2.83
2023-01-08T03:15:54.324Z,2.92
2023-01-08T03:18:25.683Z,4.97
2023-01-08T03:20:52.802Z,3.05
2023-01-08T03:23:21.354Z,4.35
2023-01-08T03:25:48.801Z,2.30
2023-01-08T03:28:21.225Z,2.50
2023-01-08T03:30:48.937Z,2.30
2023-01-08T03:33:16.708Z,2.38
2023-01-08T03:35:45.464Z,2.22
2023-01-08T03:38:25.892Z,2.65
2023-01-08T03:41:05.813Z,2.33
2023-01-08T03:43:32.765Z,3.00
2023-01-08T03:46:03.227Z,1.90
2023-01-08T03:48:31.524Z,2.80
2023-01-08T03:50:58.400Z,2.92
2023-01-08T03:53:25.378Z,3.35
2023-01-08T03:55:52.313Z,2.63
2023-01-08T03:58:19.259Z,1.77
2023-01-08T04:00:46.115Z,1.58
2023-01-08T04:03:13.036Z,2.10
2023-01-08T04:05:39.920Z,2.70
2023-01-08T04:08:06.951Z,2.58
2023-01-08T04:10:33.955Z,3.00
2023-01-08T04:13:00.945Z,2.10
2023-01-08T04:15:28.555Z,2.40
2023-01-08T04:17:55.568Z,2.53
2023-01-08T04:20:22.474Z,3.08
2023-01-08T04:22:49.331Z,4.00
2023-01-08T04:25:16.326Z,2.20
2023-01-08T04:27:43.240Z,2.58
2023-01-08T04:30:10.835Z,2.53
2023-01-08T04:32:37.888Z,2.55
2023-01-08T04:35:05.210Z,2.08
2023-01-08T04:37:32.114Z,3.53
2023-01-08T04:39:59.024Z,1.63
2023-01-08T04:42:25.937Z,1.52
2023-01-08T04:44:52.836Z,2.33
2023-01-08T04:47:19.797Z,2.78
2023-01-08T04:49:46.937Z,2.50
2023-01-08T04:52:13.788Z,2.25
2023-01-08T04:54:40.663Z,1.88
2023-01-08T04:57:08.931Z,4.10
2023-01-08T04:59:35.948Z,1.90
2023-01-08T05:02:03.137Z,1.48
2023-01-08T05:04:30.336Z,1.55
2023-01-08T05:06:57.230Z,1.90
2023-01-08T05:09:24.126Z,2.05
2023-01-08T05:11:51.032Z,1.33
2023-01-08T05:14:18.028Z,1.58
2023-01-08T05:16:44.976Z,3.00
2023-01-08T05:19:11.854Z,2.72
2023-01-08T05:21:38.848Z,2.75
2023-01-08T05:24:05.984Z,2.92
2023-01-08T05:26:32.887Z,2.85
2023-01-08T05:28:59.838Z,2.28
2023-01-08T05:31:26.911Z,1.98
2023-01-08T05:33:53.816Z,2.88
2023-01-08T05:36:20.740Z,2.92
2023-01-08T05:38:47.635Z,1.42
2023-01-08T05:41:14.522Z,2.13
2023-01-08T05:43:41.478Z,3.22
2023-01-08T05:46:08.432Z,1.70
2023-01-08T05:48:36.105Z,3.53
2023-01-08T05:51:04.054Z,1.23
2023-01-08T05:53:32.954Z,2.53
2023-01-08T05:56:09.124Z,2.83
2023-01-08T05:58:36.710Z,1.80
2023-01-08T06:01:11.845Z,4.80
2023-01-08T06:03:39.437Z,1.80
2023-01-08T06:06:07.796Z,1.38
2023-01-08T06:08:35.138Z,1.25
2023-01-08T06:11:03.507Z,2.17
2023-01-08T06:13:30.460Z,2.23
2023-01-08T06:16:00.220Z,3.55
2023-01-08T06:18:27.816Z,1.92
2023-01-08T06:20:54.802Z,1.75
2023-01-08T06:23:21.724Z,2.03
2023-01-08T06:25:56.178Z,2.28
2023-01-08T06:28:23.469Z,2.45
2023-01-08T06:30:50.753Z,3.22
2023-01-08T06:33:20.118Z,1.90
2023-01-08T06:35:47.933Z,3.97
2023-01-08T06:38:14.917Z,2.28
2023-01-08T06:40:41.839Z,3.40
2023-01-08T06:43:08.735Z,1.58
2023-01-08T06:45:35.684Z,2.33
2023-01-08T06:48:04.298Z,1.85
2023-01-08T06:50:32.021Z,2.37
2023-01-08T06:52:58.916Z,2.28
2023-01-08T06:55:27.291Z,2.03
2023-01-08T06:57:58.476Z,1.52
2023-01-08T07:00:27.270Z,1.13
2023-01-08T07:02:54.611Z,1.70
2023-01-08T07:05:21.814Z,1.65
2023-01-08T07:07:48.927Z,2.03
2023-01-08T07:10:16.975Z,2.83
2023-01-08T07:12:44.919Z,2.88
2023-01-08T07:15:11.951Z,1.85
2023-01-08T07:17:38.872Z,1.50
2023-01-08T07:20:06.484Z,2.63
2023-01-08T07:22:33.464Z,4.30
2023-01-08T07:25:00.380Z,6.13
2023-01-08T07:27:27.423Z,5.72
2023-01-08T07:29:55.991Z,3.58
2023-01-08T07:32:23.042Z,3.07
2023-01-08T07:34:50.046Z,3.88
2023-01-08T07:37:17.041Z,4.75
2023-01-08T07:39:44.071Z,3.83
2023-01-08T07:42:10.957Z,2.33
2023-01-08T07:44:37.893Z,3.45
2023-01-08T07:47:04.825Z,5.95
2023-01-08T07:49:32.147Z,7.78
2023-01-08T07:51:59.041Z,3.40
2023-01-08T07:54:25.977Z,6.80
2023-01-08T07:56:54.983Z,5.10
2023-01-08T07:59:21.939Z,1.75
2023-01-08T08:01:49.240Z,2.83
2023-01-08T08:04:16.400Z,3.60
2023-01-08T08:06:43.275Z,1.80
2023-01-08T08:09:10.246Z,2.00
2023-01-08T08:11:38.539Z,2.42
2023-01-08T08:14:05.645Z,6.32
2023-01-08T08:16:32.757Z,5.68
2023-01-08T08:19:00.284Z,3.38
2023-01-08T08:21:29.366Z,3.10
2023-01-08T08:23:56.554Z,5.93
2023-01-08T08:26:23.833Z,5.53
2023-01-08T08:28:51.102Z,3.97
2023-01-08T08:31:18.096Z,3.92
2023-01-08T08:33:45.057Z,3.78
2023-01-08T08:36:12.026Z,3.33
2023-01-08T08:38:39.894Z,3.03
2023-01-08T08:41:07.300Z,5.72
2023-01-08T08:43:34.205Z,4.30
2023-01-08T08:46:01.113Z,4.75
2023-01-08T08:48:28.070Z,4.65
2023-01-08T08:50:55.037Z,4.00
2023-01-08T08:53:21.997Z,11.68
2023-01-08T08:55:48.959Z,4.75
2023-01-08T08:58:15.973Z,6.18
2023-01-08T09:00:43.769Z,3.60
2023-01-08T09:03:17.183Z,4.40
2023-01-08T09:05:44.289Z,5.03
2023-01-08T09:08:12.081Z,3.13
2023-01-08T09:10:41.504Z,5.93
2023-01-08T09:15:36.570Z,3.00
2023-01-08T09:18:03.732Z,5.45
2023-01-08T09:20:30.721Z,6.38
2023-01-08T09:23:01.481Z,4.88
2023-01-08T09:25:28.590Z,3.88
2023-01-08T09:28:02.664Z,2.85
2023-01-08T09:30:30.081Z,5.18
2023-01-08T09:33:02.706Z,3.33
2023-01-08T09:35:30.856Z,6.00
2023-01-08T09:37:58.104Z,3.83
2023-01-08T09:40:39.884Z,2.95
2023-01-08T09:43:11.371Z,5.82
2023-01-08T09:45:39.376Z,3.58
2023-01-08T09:48:12.725Z,2.25
2023-01-08T09:50:39.886Z,4.05
2023-01-08T09:53:15.105Z,5.38
2023-01-08T09:55:42.633Z,4.13
2023-01-08T09:58:22.580Z,4.55
2023-01-08T10:00:49.703Z,6.15
2023-01-08T10:03:16.701Z,3.35
2023-01-08T10:05:43.775Z,4.57
2023-01-08T10:08:14.173Z,2.67
2023-01-08T10:10:41.891Z,4.10
2023-01-08T10:13:11.171Z,4.47
2023-01-08T10:15:38.117Z,4.38
2023-01-08T10:18:07.917Z,5.28
2023-01-08T10:20:34.874Z,4.50
2023-01-08T10:23:13.673Z,5.47
2023-01-08T10:25:58.639Z,4.40
2023-01-08T10:28:36.314Z,5.00
2023-01-08T10:31:14.911Z,2.60
2023-01-08T10:33:47.443Z,5.18
2023-01-08T10:36:16.708Z,7.45
2023-01-08T10:38:53.044Z,6.53
2023-01-08T10:41:20.224Z,6.28
2023-01-08T10:43:55.486Z,2.88
2023-01-08T10:46:26.265Z,7.18
2023-01-08T10:48:59.091Z,6.30
2023-01-08T10:51:28.322Z,2.72
2023-01-08T10:53:59.110Z,3.05
2023-01-08T10:56:28.517Z,4.45
2023-01-08T10:58:56.379Z,3.20
2023-01-08T11:01:24.353Z,3.60
2023-01-08T11:03:52.828Z,4.40
2023-01-08T11:06:23.371Z,4.40
2023-01-08T11:08:57.974Z,1.92
2023-01-08T11:11:25.222Z,4.70
2023-01-08T11:13:58.318Z,4.03
2023-01-08T11:16:39.552Z,3.42
2023-01-08T11:19:24.677Z,4.00
2023-01-08T11:22:04.080Z,4.10
2023-01-08T11:24:35.718Z,3.58
2023-01-08T11:27:14.520Z,3.50
2023-01-08T11:29:47.792Z,3.38
2023-01-08T11:32:48.280Z,5.18
2023-01-08T11:35:22.157Z,3.35
2023-01-08T11:38:00.120Z,3.58
2023-01-08T11:40:48.922Z,3.80
2023-01-08T11:43:57.524Z,2.97
2023-01-08T11:46:38.453Z,1.77
2023-01-08T11:49:43.634Z,2.50
2023-01-08T11:52:48.676Z,2.97
2023-01-08T11:55:24.600Z,2.20
2023-01-08T11:58:06.682Z,1.80
2023-01-08T12:00:38.647Z,2.03
2023-01-08T12:03:27.440Z,2.17
2023-01-08T12:06:37.085Z,4.38
2023-01-08T12:09:33.918Z,2.42
2023-01-08T12:12:16.395Z,2.08
2023-01-08T12:14:46.095Z,3.10
2023-01-08T12:17:36.069Z,3.00
2023-01-08T12:20:11.786Z,1.98
2023-01-08T12:22:42.384Z,2.47
2023-01-08T12:25:34.120Z,1.20
2023-01-08T12:28:03.931Z,2.13
2023-01-08T12:30:36.838Z,2.03
2023-01-08T12:33:14.900Z,2.92
2023-01-08T12:35:54.809Z,2.05
2023-01-08T12:38:25.656Z,2.08
2023-01-08T12:41:01.888Z,4.53
2023-01-08T12:43:29.497Z,4.15
2023-01-08T12:45:58.242Z,1.77
2023-01-08T12:48:30.497Z,2.17
2023-01-08T12:50:57.371Z,1.50
2023-01-08T12:53:34.694Z,3.72
2023-01-08T12:56:40.036Z,2.25
2023-01-08T12:59:29.689Z,2.42
2023-01-08T13:02:08.504Z,2.58
2023-01-08T13:04:46.859Z,2.92
2023-01-08T13:07:44.138Z,2.20
2023-01-08T13:10:23.220Z,1.65
2023-01-08T13:12:51.512Z,1.58
2023-01-08T13:15:23.039Z,3.08
2023-01-08T13:17:50.832Z,2.13
2023-01-08T13:20:27.639Z,2.97
2023-01-08T13:22:57.072Z,2.00
2023-01-08T13:27:57.607Z,2.05
2023-01-08T13:30:31.205Z,4.03
2023-01-08T13:32:58.352Z,2.00
2023-01-08T13:35:26.936Z,3.28
2023-01-08T13:38:13.430Z,2.85
2023-01-08T13:40:43.174Z,2.03
2023-01-08T13:43:22.692Z,2.20
2023-01-08T13:46:01.710Z,3.00
2023-01-08T13:48:31.097Z,2.28
2023-01-08T13:53:25.119Z,2.40
2023-01-08T13:56:00.903Z,1.90
2023-01-08T13:58:37.089Z,2.90
2023-01-08T14:01:05.322Z,5.45
2023-01-08T14:03:35.761Z,2.55
2023-01-08T14:06:17.813Z,3.03
2023-01-08T14:09:00.622Z,2.70
2023-01-08T14:11:45.538Z,2.45
2023-01-08T14:14:13.908Z,2.03
2023-01-08T14:16:41.422Z,1.83
2023-01-08T14:19:08.477Z,3.45
2023-01-08T14:21:35.457Z,2.47
2023-01-08T14:24:02.391Z,2.22
2023-01-08T14:26:31.538Z,2.30
2023-01-08T14:28:58.599Z,3.92
2023-01-08T14:31:27.135Z,3.15
2023-01-08T14:33:55.983Z,5.17
2023-01-08T14:36:23.333Z,2.28
2023-01-08T14:38:51.088Z,2.08
2023-01-08T14:41:20.747Z,2.05
2023-01-08T14:43:49.806Z,4.07
2023-01-08T14:46:27.153Z,2.50
2023-01-08T14:48:54.641Z,2.78
2023-01-08T14:51:24.717Z,1.88
2023-01-08T14:53:54.376Z,4.05
2023-01-08T14:56:28.268Z,3.20
2023-01-08T14:58:55.545Z,1.90
2023-01-08T15:01:25.511Z,3.08
2023-01-08T15:04:10.474Z,2.33
2023-01-08T15:06:37.401Z,2.58
2023-01-08T15:09:25.151Z,2.85
2023-01-08T15:11:57.988Z,2.10
2023-01-08T15:14:27.365Z,2.25
2023-01-08T15:16:57.863Z,4.25
2023-01-08T15:19:29.851Z,2.22
2023-01-08T15:21:59.236Z,2.15
2023-01-08T15:27:09.948Z,3.25
2023-01-08T15:30:00.866Z,2.38
2023-01-08T15:32:31.269Z,2.60
2023-01-08T15:34:58.571Z,2.88
2023-01-08T15:37:25.531Z,4.72
2023-01-08T15:39:52.544Z,3.90
2023-01-08T15:42:47.012Z,4.10
2023-01-08T15:45:19.584Z,3.13
2023-01-08T15:47:46.790Z,3.83
2023-01-08T15:50:14.086Z,2.95
2023-01-08T15:52:42.452Z,4.60
2023-01-08T15:55:21.143Z,1.55
2023-01-08T15:57:48.211Z,2.15
2023-01-08T16:00:16.921Z,3.15
2023-01-08T16:02:51.960Z,3.25
2023-01-08T16:05:20.741Z,2.22
2023-01-08T16:07:47.770Z,2.20
2023-01-08T16:10:15.805Z,2.15
2023-01-08T16:12:45.359Z,3.85
2023-01-08T16:15:13.727Z,3.15
2023-01-08T16:17:41.221Z,2.47
2023-01-08T16:20:08.924Z,2.03
2023-01-08T16:22:36.012Z,4.13
2023-01-08T16:25:03.803Z,3.00
2023-01-08T16:27:32.078Z,4.30
2023-01-08T16:29:59.571Z,3.25
2023-01-08T16:32:26.501Z,7.00
2023-01-08T16:34:55.004Z,14.52
2023-01-08T16:37:22.651Z,16.17
2023-01-08T16:39:49.743Z,19.13
2023-01-08T16:42:16.767Z,31.83
2023-01-08T16:44:43.943Z,35.65
2023-01-08T16:47:10.871Z,35.53
2023-01-08T16:49:37.795Z,32.00
2023-01-08T16:52:04.972Z,31.80
2023-01-08T16:54:33.041Z,32.75
2023-01-08T16:56:59.986Z,38.72
2023-01-08T16:59:27.270Z,34.67
2023-01-08T17:01:54.370Z,26.98
2023-01-08T17:04:21.635Z,33.47
2023-01-08T17:06:48.582Z,24.00
2023-01-08T17:09:15.536Z,29.65
2023-01-08T17:11:42.656Z,25.25
2023-01-08T17:14:09.877Z,22.90
2023-01-08T17:16:36.896Z,28.80
2023-01-08T17:19:04.118Z,27.73
2023-01-08T17:21:31.052Z,20.17
2023-01-08T17:23:58.033Z,23.73
2023-01-08T17:26:25.046Z,28.20
2023-01-08T17:28:52.011Z,19.33
2023-01-08T17:31:20.062Z,18.60
2023-01-08T17:33:51.180Z,20.42
2023-01-08T17:36:20.669Z,20.20
2023-01-08T17:38:49.290Z,19.13
2023-01-08T17:41:35.359Z,20.45
2023-01-08T17:44:03.363Z,16.38
2023-01-08T17:46:30.288Z,19.85
2023-01-08T17:48:57.204Z,15.20
2023-01-08T17:51:24.122Z,17.80
2023-01-08T17:53:51.033Z,17.10
2023-01-08T17:56:17.931Z,16.80
2023-01-08T17:58:45.784Z,18.05
2023-01-08T18:01:13.721Z,20.85
2023-01-08T18:03:40.771Z,17.02
2023-01-08T18:06:10.338Z,15.10
2023-01-08T18:08:38.279Z,11.93
2023-01-08T18:11:06.501Z,14.80
2023-01-08T18:13:33.820Z,16.38
2023-01-08T18:16:05.191Z,14.68
2023-01-08T18:18:32.711Z,14.30
2023-01-08T18:20:59.662Z,13.38
2023-01-08T18:23:26.627Z,12.55
2023-01-08T18:25:53.623Z,11.30
2023-01-08T18:28:20.692Z,11.40
2023-01-08T18:30:47.622Z,12.20
2023-01-08T18:33:15.199Z,11.40
2023-01-08T18:35:42.240Z,10.93
2023-01-08T18:38:18.323Z,13.13
2023-01-08T18:40:46.171Z,10.63
2023-01-08T18:43:13.099Z,13.30
2023-01-08T18:45:40.183Z,10.00
2023-01-08T18:48:09.451Z,12.75
2023-01-08T18:53:09.086Z,10.77
2023-01-08T18:55:37.021Z,9.65
2023-01-08T18:58:04.758Z,12.15
2023-01-08T19:00:32.027Z,10.05
2023-01-08T19:02:58.945Z,8.77
2023-01-08T19:05:25.938Z,11.82
2023-01-08T19:07:52.915Z,12.50
2023-01-08T19:10:21.635Z,10.32
2023-01-08T19:12:49.271Z,10.18
2023-01-08T19:15:16.584Z,8.77
2023-01-08T19:17:43.514Z,12.48
2023-01-08T19:20:11.032Z,11.25
2023-01-08T19:22:38.033Z,14.13
2023-01-08T19:25:05.312Z,8.20
2023-01-08T19:27:34.655Z,12.07
2023-01-08T19:30:02.312Z,9.68
2023-01-08T19:32:29.367Z,7.15
2023-01-08T19:34:56.340Z,8.88
2023-01-08T19:37:23.356Z,9.40
2023-01-08T19:39:50.392Z,8.93
2023-01-08T19:42:36.233Z,9.02
2023-01-08T19:45:03.280Z,8.38
2023-01-08T19:47:30.255Z,10.95
2023-01-08T19:49:57.219Z,10.32
2023-01-08T19:52:24.151Z,10.75
2023-01-08T19:54:51.053Z,9.23
2023-01-08T19:57:17.994Z,10.93
2023-01-08T19:59:44.982Z,9.02
2023-01-08T20:02:12.623Z,9.23
2023-01-08T20:04:42.433Z,9.00
2023-01-08T20:07:09.576Z,7.72
2023-01-08T20:09:36.650Z,8.57
2023-01-08T20:12:03.725Z,8.57
2023-01-08T20:14:30.717Z,7.78
2023-01-08T20:16:57.717Z,6.75
2023-01-08T20:19:24.642Z,8.00
2023-01-08T20:21:51.598Z,5.95
2023-01-08T20:24:18.563Z,5.43
2023-01-08T20:26:46.373Z,5.97
2023-01-08T20:29:15.109Z,7.50
2023-01-08T20:31:43.945Z,7.80
2023-01-08T20:34:15.737Z,8.88
2023-01-08T20:36:44.309Z,5.57
2023-01-08T20:39:15.120Z,4.15
2023-01-08T20:41:49.832Z,6.07
2023-01-08T20:44:22.611Z,5.28
2023-01-08T20:46:49.504Z,5.75
2023-01-08T20:49:18.426Z,5.30
2023-01-08T20:51:54.409Z,5.45
2023-01-08T20:56:51.706Z,6.07
2023-01-08T20:59:18.664Z,8.68
2023-01-08T21:01:45.681Z,7.38
2023-01-08T21:04:12.686Z,7.70
2023-01-08T21:06:39.853Z,8.00
2023-01-08T21:09:09.360Z,5.90
2023-01-08T21:11:38.454Z,5.70
2023-01-08T21:14:07.977Z,4.80
2023-01-08T21:16:35.451Z,6.28
2023-01-08T21:19:03.556Z,6.45
2023-01-08T21:21:36.827Z,7.53
2023-01-08T21:24:07.261Z,5.95
2023-01-08T21:26:34.548Z,4.80
2023-01-08T21:29:06.087Z,5.72
2023-01-08T21:31:34.001Z,7.45
2023-01-08T21:34:02.220Z,6.65
2023-01-08T21:36:31.540Z,6.07
2023-01-08T21:38:59.877Z,5.18
2023-01-08T21:41:45.888Z,5.18
2023-01-08T21:44:37.111Z,3.40
2023-01-08T21:47:06.858Z,4.35
2023-01-08T21:49:36.105Z,3.63
2023-01-08T21:52:22.224Z,5.60
2023-01-08T21:54:49.248Z,5.15
2023-01-08T21:57:16.783Z,4.57
2023-01-08T21:59:43.747Z,2.58
2023-01-08T22:02:16.001Z,4.32
2023-01-08T22:04:43.920Z,3.15
2023-01-08T22:07:11.202Z,4.72
2023-01-08T22:09:38.337Z,6.03
2023-01-08T22:12:06.711Z,4.90
2023-01-08T22:14:34.225Z,4.30
2023-01-08T22:17:04.006Z,3.80
2023-01-08T22:19:31.033Z,2.78
2023-01-08T22:21:57.983Z,3.90
2023-01-08T22:24:24.997Z,3.55
2023-01-08T22:26:51.884Z,3.20
2023-01-08T22:29:18.784Z,4.40
2023-01-08T22:31:45.785Z,4.10
2023-01-08T22:34:17.106Z,2.53
2023-01-08T22:36:53.663Z,4.22
2023-01-08T22:39:20.590Z,3.78
2023-01-08T22:41:47.544Z,6.30
2023-01-08T22:44:14.782Z,3.97
2023-01-08T22:46:42.298Z,4.50
2023-01-08T22:49:13.282Z,3.67
2023-01-08T22:51:43.049Z,4.03
2023-01-08T22:54:12.832Z,3.35
2023-01-08T22:56:39.755Z,4.50
2023-01-08T22:59:06.683Z,3.60
2023-01-08T23:01:33.659Z,3.50
2023-01-08T23:04:01.334Z,2.15
2023-01-08T23:06:30.041Z,4.13
2023-01-08T23:08:57.581Z,3.28
2023-01-08T23:11:25.148Z,2.22
2023-01-08T23:13:52.357Z,3.38
2023-01-08T23:16:22.899Z,3.28
2023-01-08T23:18:51.206Z,3.25
2023-01-08T23:21:20.846Z,4.22
2023-01-08T23:23:47.830Z,3.42
2023-01-08T23:26:18.866Z,3.78
2023-01-08T23:28:46.859Z,3.40
2023-01-08T23:31:17.363Z,2.28
2023-01-08T23:33:44.395Z,2.97
2023-01-08T23:36:17.732Z,3.30
2023-01-08T23:38:53.153Z,3.75
2023-01-08T23:41:21.477Z,3.42
2023-01-08T23:43:49.297Z,2.43
2023-01-08T23:46:16.926Z,2.08
2023-01-08T23:48:43.978Z,3.70
2023-01-08T23:51:10.939Z,3.67
2023-01-08T23:53:37.856Z,2.40
2023-01-08T23:56:05.140Z,2.28
2023-01-08T23:58:32.049Z,2.30
